Thomas Point, MD current weather conditions

sailwx.info

Wind from 330 at 15 knots gusting 19

Air temperature -1.4° C
Dewpoint -13.3° C
Water temperature 4.3° C

Last reported at 2020-Jan-21 06:00 UTC.
Time now 2020-Jan-21 06:37 UTC

Location: N 38°54' W 076°26'.
View on Google Maps.

See reports from other nearby stations

  
Tides and Currents Weather Stations Pressure Air Temp Water Temp Dewpoint Dewpoint Depression Visibility Wind Speed Wind Dir Waves Ship Positions
date/time (UTC)wind fromknots sea level pressurealtimeterstation pressurevisibilityair tempwater tempwave heightnotes
2020-Jan-21 06:00 330 15 gusting 19 -1.4 4.3
2020-Jan-21 05:00 330 14 gusting 15 -1.4 4.4
2020-Jan-21 04:00 330 13 gusting 14 -1.0 4.5
2020-Jan-21 03:00 330 12 gusting 13 -0.8 4.6
2020-Jan-21 02:00 340 13 gusting 14 -0.7 4.6
2020-Jan-21 01:00 330 15 gusting 18 -0.5 4.6
2020-Jan-21 00:00 320 14 gusting 17 -0.4 4.7
2020-Jan-20 23:00 320 14 gusting 17 -0.0 4.8
2020-Jan-20 22:00 310 18 gusting 20 0.1 4.8
2020-Jan-20 21:00 320 14 gusting 18 0.3 4.8
2020-Jan-20 20:00 340 13 gusting 15 0.1 4.8
2020-Jan-20 19:00 330 17 gusting 18 -0.2 4.8
2020-Jan-20 18:00 340 15 gusting 19 -0.8 4.8
2020-Jan-20 17:00 330 17 gusting 20 -1.5 4.8
2020-Jan-20 16:00 320 19 gusting 20 -2.2 4.7
2020-Jan-20 15:00 310 18 gusting 20 -2.9 4.9
2020-Jan-20 14:00 320 17 gusting 20 -3.6 5.0
2020-Jan-20 13:00 300 13 gusting 15 -3.9 5.0
2020-Jan-20 12:00 300 15 gusting 18 -3.5 4.9
2020-Jan-20 11:00 310 18 gusting 21 -3.3 5.0
2020-Jan-20 10:00 300 13 gusting 17 -3.4 5.0
2020-Jan-20 09:00 290 17 gusting 19 -3.3 5.1
2020-Jan-20 08:00 290 18 gusting 22 -3.2 5.0
2020-Jan-20 07:00 280 17 gusting 19 -3.0 5.0
2020-Jan-20 06:00 280 18 gusting 20 -2.4 5.1
2020-Jan-20 05:00 290 20 gusting 26 -2.0 5.2
2020-Jan-20 04:00 290 19 gusting 20 -1.5 5.2
2020-Jan-20 03:00 290 20 gusting 21 -1.0 5.4
2020-Jan-20 02:00 300 19 gusting 21 -0.3 5.6
2020-Jan-20 01:00 290 13 gusting 15 0.1 5.7
2020-Jan-20 00:00 290 20 gusting 22 0.6 5.7
2020-Jan-19 23:00 280 21 gusting 26 1.4 5.8
2020-Jan-19 22:00 280 18 gusting 19 2.1 5.9
2020-Jan-19 21:00 290 20 gusting 25 3.0 5.8
2020-Jan-19 20:00 310 27 gusting 28 3.4 5.8
2020-Jan-19 19:00 300 19 gusting 22 3.8 5.8
2020-Jan-19 18:00 280 24 gusting 27 4.8 5.9
2020-Jan-19 17:00 290 15 gusting 20 5.5 5.7
2020-Jan-19 16:00 290 24 gusting 27 5.7 5.6
2020-Jan-19 15:00 290 17 gusting 19 5.9 5.6
2020-Jan-19 14:00 280 11 gusting 12 6.1 5.5
2020-Jan-19 13:00 260 8 gusting 9 6.6 5.6
2020-Jan-19 12:00 230 4 gusting 5 6.0 5.6
2020-Jan-19 11:00 290 7 gusting 7 6.2 5.6
2020-Jan-19 10:00 260 6 gusting 8 6.5 5.6
2020-Jan-19 09:00 290 6 gusting 6 6.4 5.7
2020-Jan-19 08:00 240 13 gusting 14 6.6 5.8
2020-Jan-19 07:00 180 15 gusting 18 5.9 5.8
2020-Jan-19 06:00 180 13 gusting 14 5.6 5.8